Deerfield, MA

11:16 AM EDT on August 02, 2015 (GMT -0400)
Bement School | | Change Station
CLOSE
Current Station
Personal Weather Station
Location: Deerfield, MA
Elevation: 164 ft
Nearby Weather Stations

Elev 164 ft 42.55 °N, 72.60 °W | Updated 1 minute ago

Clear
Clear
76.5 °F
Feels Like 78 °F
N
4.0
Wind Variable Wind from ESE
Gusts 4.0 mph

Today
High -- | Low -- °F
--% Chance of Precip.
Yesterday
High -- | Low -- °F
Precip. -- in
5:43 AM 8:09 PM
Waning Gibbous, 93% visible
Pressure 29.92 in
Visibility 10.0 miles
Clouds Clear
Heat Index 78 °F
Dew Point 60 °F
Humidity 56%
Rainfall 0.00 in
Snow Depth Not available.
UV 9 out of 12
Pollen 5.50 out of 12
Air Quality Not available.
Flu Activity Not available.
METAR KORE 021452Z AUTO VRB04KT 10SM CLR 25/12 A2992 RMK AO2 SLP130 T02500122 53004

More Conditions Fewer Conditions

Pressure 29.92 in
Visibility 10.0 miles
Clouds Clear
Heat Index 78 °F
Dew Point 60 °F
Humidity 56%
Rainfall 0.00 in
Snow Depth Not available.
UV 9 out of 12
Pollen 5.50 out of 12
Air Quality Not available.
Flu Activity Not available.
METAR KORE 021452Z AUTO VRB04KT 10SM CLR 25/12 A2992 RMK AO2 SLP130 T02500122 53004

More Conditions Fewer Conditions

10-Day Weather Forecast

×

Almanac

Astronomy

Aug. 02, 2015 Rise Set
Actual Time
Civil Twilight
Nautical Twilight
Astronomical Twilight
Moon
Length of Visible Light
Length of Day
Tomorrow will be .
, % of the Moon is Illuminated

Today's Extremes

State Highs State Lows

Community

WunderPhotos

Upload Photos

1,843,279 photos uploaded!

WunderBlogs® & News

Nearby

Air Quality

  Air Quality AQ Index Pollutant
Not available.

Snow Depth

Station Depth Elevation

Earthquake Activity

City Distance Mag. Time & Date
Minimum magnitude displayed is 2.5.

Coastal Water Temperatures

Place Temperature

Stations

Nearby Weather Stations

Station Location Temp. Windchill Dew Point Humidity Wind Precip. Elev Updated Type